createdAt,value
2022-09-06T00:04:04.782Z,101562.06
2022-09-06T00:09:26.699Z,101554.16
2022-09-06T00:14:48.524Z,101552.56
2022-09-06T00:20:10.892Z,101556.88
2022-09-06T00:25:33.441Z,101555.13
2022-09-06T00:30:55.343Z,101556.78
2022-09-06T00:36:18.477Z,101555.09
2022-09-06T00:41:40.350Z,101556.81
2022-09-06T00:47:02.760Z,101553.53
2022-09-06T00:52:26.052Z,101551.00
2022-09-06T00:57:49.606Z,101546.81
2022-09-06T01:03:12.862Z,101554.66
2022-09-06T01:08:59.331Z,101558.97
2022-09-06T01:14:45.448Z,101554.84
2022-09-06T01:20:19.524Z,101554.06
2022-09-06T01:25:59.104Z,101554.25
2022-09-06T01:31:40.049Z,101555.25
2022-09-06T01:37:11.260Z,101548.44
2022-09-06T01:42:34.635Z,101542.44
2022-09-06T01:48:12.498Z,101541.53
2022-09-06T01:53:53.282Z,101555.44
2022-09-06T01:59:24.979Z,101548.53
2022-09-06T02:04:57.346Z,101546.75
2022-09-06T02:10:29.865Z,101549.53
2022-09-06T02:16:01.208Z,101546.16
2022-09-06T02:21:28.105Z,101562.50
2022-09-06T02:26:50.396Z,101554.78
2022-09-06T02:32:12.182Z,101558.22
2022-09-06T02:37:34.460Z,101557.41
2022-09-06T02:42:56.271Z,101563.38
2022-09-06T02:48:18.114Z,101565.09
2022-09-06T02:53:40.050Z,101564.22
2022-09-06T02:59:02.820Z,101554.66
2022-09-06T03:04:24.644Z,101542.66
2022-09-06T03:09:46.472Z,101545.97
2022-09-06T03:15:08.879Z,101547.56
2022-09-06T03:20:35.049Z,101532.91
2022-09-06T03:25:58.877Z,101538.00
2022-09-06T03:31:20.847Z,101546.53
2022-09-06T03:36:42.759Z,101539.53
2022-09-06T03:42:04.645Z,101549.84
2022-09-06T03:47:26.499Z,101547.25
2022-09-06T03:52:48.341Z,101539.50
2022-09-06T03:58:10.219Z,101543.56
2022-09-06T04:03:32.659Z,101543.53
2022-09-06T04:08:54.729Z,101541.84
2022-09-06T04:14:16.574Z,101540.81
2022-09-06T04:19:38.395Z,101535.72
2022-09-06T04:25:00.269Z,101528.16
2022-09-06T04:30:22.155Z,101538.09
2022-09-06T04:35:48.858Z,101520.22
2022-09-06T04:41:11.437Z,101529.78
2022-09-06T04:46:33.537Z,101517.75
2022-09-06T04:51:55.401Z,101516.91
2022-09-06T04:57:17.275Z,101519.03
2022-09-06T05:02:39.233Z,101510.75
2022-09-06T05:08:01.155Z,101502.38
2022-09-06T05:13:22.990Z,101510.84
2022-09-06T05:18:44.899Z,101506.69
2022-09-06T05:24:06.773Z,101511.28
2022-09-06T05:29:30.602Z,101526.59
2022-09-06T05:34:52.606Z,101514.78
2022-09-06T05:40:14.493Z,101508.06
2022-09-06T05:45:36.477Z,101503.97
2022-09-06T05:51:03.207Z,101504.03
2022-09-06T05:56:25.520Z,101501.81
2022-09-06T06:01:49.494Z,101501.09
2022-09-06T06:07:11.349Z,101495.28
2022-09-06T06:12:33.198Z,101498.09
2022-09-06T06:17:55.056Z,101504.59
2022-09-06T06:23:16.906Z,101503.75
2022-09-06T06:28:39.744Z,101496.88
2022-09-06T06:34:01.798Z,101504.13
2022-09-06T06:39:23.722Z,101513.75
2022-09-06T06:44:45.612Z,101497.81
2022-09-06T06:50:07.820Z,101500.00
2022-09-06T06:55:29.637Z,101513.75
2022-09-06T07:00:51.595Z,101525.38
2022-09-06T07:06:14.798Z,101522.91
2022-09-06T07:11:36.623Z,101517.16
2022-09-06T07:16:58.460Z,101525.84
2022-09-06T07:22:20.293Z,101519.56
2022-09-06T07:33:06.798Z,101526.44
2022-09-06T07:38:29.530Z,101523.63
2022-09-06T07:43:54.664Z,101520.19
2022-09-06T07:49:16.491Z,101529.41
2022-09-06T07:54:38.302Z,101512.88
2022-09-06T08:00:00.250Z,101513.41
2022-09-06T08:11:03.909Z,101510.72
2022-09-06T08:16:27.844Z,101512.81
2022-09-06T08:21:49.817Z,101510.91
2022-09-06T08:27:11.743Z,101516.81
2022-09-06T08:32:33.999Z,101511.03
2022-09-06T08:37:58.311Z,101496.25
2022-09-06T08:43:21.599Z,101491.19
2022-09-06T08:48:43.709Z,101500.53
2022-09-06T08:54:32.226Z,101493.75
2022-09-06T08:59:59.834Z,101480.53
2022-09-06T09:05:33.691Z,101471.38
2022-09-06T09:11:03.112Z,101468.59
2022-09-06T09:16:25.545Z,101466.41
2022-09-06T09:21:47.936Z,101457.94
2022-09-06T09:27:11.401Z,101438.03
2022-09-06T09:32:37.936Z,101461.34
2022-09-06T09:38:11.988Z,101451.25
2022-09-06T09:43:40.318Z,101436.75
2022-09-06T09:49:14.631Z,101421.78
2022-09-06T09:54:41.085Z,101432.47
2022-09-06T10:00:03.925Z,101418.81
2022-09-06T10:05:25.829Z,101423.44
2022-09-06T10:10:48.051Z,101417.91
2022-09-06T10:16:10.132Z,101418.25
2022-09-06T10:21:32.179Z,101406.53
2022-09-06T10:26:59.111Z,101389.41
2022-09-06T10:32:49.082Z,101398.06
2022-09-06T10:38:31.893Z,101386.34
2022-09-06T10:44:30.931Z,101406.72
2022-09-06T10:49:58.467Z,101396.66
2022-09-06T10:55:20.857Z,101396.38
2022-09-06T11:00:45.839Z,101375.16
2022-09-06T11:06:09.875Z,101375.13
2022-09-06T11:11:47.540Z,101362.09
2022-09-06T11:17:09.337Z,101356.75
2022-09-06T11:22:46.445Z,101366.47
2022-09-06T11:28:14.068Z,101346.28
2022-09-06T11:33:35.975Z,101365.06
2022-09-06T11:39:03.047Z,101340.97
2022-09-06T11:44:50.021Z,101339.38
2022-09-06T11:50:20.977Z,101344.84
2022-09-06T11:55:48.924Z,101323.91
2022-09-06T12:01:13.800Z,101324.19
2022-09-06T12:07:02.498Z,101316.59
2022-09-06T12:12:45.638Z,101310.84
2022-09-06T12:18:07.557Z,101302.16
2022-09-06T12:23:35.327Z,101295.25
2022-09-06T12:28:58.231Z,101287.97
2022-09-06T12:34:22.159Z,101275.66
2022-09-06T12:39:57.473Z,101277.75
2022-09-06T12:45:26.590Z,101269.22
2022-09-06T12:51:01.155Z,101267.72
2022-09-06T12:56:25.279Z,101266.28
2022-09-06T13:01:51.649Z,101264.34
2022-09-06T13:07:17.338Z,101258.78
2022-09-06T13:12:45.429Z,101255.84
2022-09-06T13:18:36.697Z,101253.50
2022-09-06T13:23:59.463Z,101254.75
2022-09-06T13:29:29.410Z,101254.53
2022-09-06T13:34:51.750Z,101259.59
2022-09-06T13:41:06.731Z,101262.56
2022-09-06T13:46:25.079Z,101240.59
2022-09-06T13:51:46.976Z,101245.56
2022-09-06T13:57:08.817Z,101249.81
2022-09-06T14:02:30.674Z,101232.88
2022-09-06T14:07:52.544Z,101238.09
2022-09-06T14:13:16.288Z,101209.88
2022-09-06T14:18:38.258Z,101214.88
2022-09-06T14:24:04.049Z,101206.34
2022-09-06T14:29:26.308Z,101221.66
2022-09-06T14:34:48.123Z,101207.31
2022-09-06T14:40:10.277Z,101211.97
2022-09-06T14:45:35.003Z,101204.38
2022-09-06T14:50:57.088Z,101197.50
2022-09-06T14:56:19.857Z,101192.47
2022-09-06T15:01:41.953Z,101194.16
2022-09-06T15:07:03.854Z,101183.84
2022-09-06T15:12:25.768Z,101185.13
2022-09-06T15:17:47.619Z,101171.44
2022-09-06T15:23:29.486Z,101168.97
2022-09-06T15:28:52.023Z,101165.09
2022-09-06T15:34:13.883Z,101166.44
2022-09-06T15:39:35.758Z,101161.06
2022-09-06T15:44:57.607Z,101166.78
2022-09-06T15:50:40.716Z,101158.13
2022-09-06T15:56:01.531Z,101158.97
2022-09-06T16:01:25.533Z,101154.81
2022-09-06T16:06:47.368Z,101147.56
2022-09-06T16:12:09.195Z,101146.31
2022-09-06T16:17:31.070Z,101139.63
2022-09-06T16:22:52.883Z,101133.75
2022-09-06T16:28:15.444Z,101133.06
2022-09-06T16:33:39.322Z,101128.84
2022-09-06T16:39:01.163Z,101135.94
2022-09-06T16:44:23.019Z,101123.00
2022-09-06T16:49:44.909Z,101137.25
2022-09-06T16:55:07.265Z,101150.63
2022-09-06T17:00:29.116Z,101146.41
2022-09-06T17:05:52.283Z,101141.50
2022-09-06T17:11:17.036Z,101143.16
2022-09-06T17:16:39.005Z,101141.88
2022-09-06T17:22:00.936Z,101149.69
2022-09-06T17:27:22.869Z,101152.91
2022-09-06T17:32:44.690Z,101140.91
2022-09-06T17:38:06.518Z,101143.84
2022-09-06T17:43:29.944Z,101154.03
2022-09-06T17:48:51.762Z,101152.81
2022-09-06T17:54:14.330Z,101167.28
2022-09-06T17:59:36.396Z,101180.50
2022-09-06T18:04:58.545Z,101174.34
2022-09-06T18:10:20.424Z,101177.41
2022-09-06T18:15:42.400Z,101169.22
2022-09-06T18:21:05.276Z,101177.09
2022-09-06T18:26:27.144Z,101160.81
2022-09-06T18:31:49.206Z,101173.13
2022-09-06T18:37:11.260Z,101179.25
2022-09-06T18:42:33.520Z,101186.25
2022-09-06T18:47:55.354Z,101181.41
2022-09-06T18:53:17.283Z,101173.78
2022-09-06T18:58:39.693Z,101176.50
2022-09-06T19:04:02.506Z,101178.03
2022-09-06T19:09:24.362Z,101175.22
2022-09-06T19:14:46.163Z,101176.44
2022-09-06T19:20:08.154Z,101171.06
2022-09-06T19:25:30.046Z,101181.56
2022-09-06T19:30:51.860Z,101167.78
2022-09-06T19:36:16.458Z,101177.91
2022-09-06T19:41:39.780Z,101182.44
2022-09-06T19:47:01.828Z,101162.91
2022-09-06T19:52:23.816Z,101174.88
2022-09-06T19:57:45.688Z,101160.50
2022-09-06T20:03:07.519Z,101170.88
2022-09-06T20:08:29.431Z,101175.34
2022-09-06T20:13:51.506Z,101165.53
2022-09-06T20:19:13.452Z,101171.69
2022-09-06T20:24:35.283Z,101150.97
2022-09-06T20:29:57.105Z,101153.78
2022-09-06T20:35:18.933Z,101174.06
2022-09-06T20:40:40.816Z,101170.19
2022-09-06T20:46:05.023Z,101170.59
2022-09-06T20:51:26.881Z,101166.63
2022-09-06T20:56:48.727Z,101160.47
2022-09-06T21:02:10.645Z,101147.28
2022-09-06T21:07:32.523Z,101141.69
2022-09-06T21:12:54.343Z,101149.69
2022-09-06T21:18:16.228Z,101161.63
2022-09-06T21:23:38.958Z,101158.53
2022-09-06T21:29:00.833Z,101153.78
2022-09-06T21:34:22.727Z,101142.69
2022-09-06T21:39:44.616Z,101154.09
2022-09-06T21:45:06.725Z,101147.59
2022-09-06T21:50:28.549Z,101152.44
2022-09-06T21:55:50.367Z,101144.69
2022-09-06T22:01:13.305Z,101142.69
2022-09-06T22:06:36.003Z,101156.63
2022-09-06T22:11:57.964Z,101137.16
2022-09-06T22:17:19.901Z,101140.59
2022-09-06T22:22:41.891Z,101134.91
2022-09-06T22:28:03.824Z,101151.16
2022-09-06T22:33:25.810Z,101139.41
2022-09-06T22:38:47.732Z,101148.06
2022-09-06T22:44:09.699Z,101148.25
2022-09-06T22:49:31.654Z,101140.81
2022-09-06T22:54:53.571Z,101145.31
2022-09-06T23:00:15.738Z,101133.69
2022-09-06T23:05:37.709Z,101149.28
2022-09-06T23:11:04.152Z,101151.06
2022-09-06T23:16:27.668Z,101142.66
2022-09-06T23:21:49.693Z,101145.16
2022-09-06T23:27:11.657Z,101145.25
2022-09-06T23:32:33.609Z,101139.47
2022-09-06T23:37:55.549Z,101140.25
2022-09-06T23:43:17.538Z,101133.53
2022-09-06T23:48:39.495Z,101134.53
2022-09-06T23:54:01.553Z,101126.84
2022-09-06T23:59:23.495Z,101123.59
